createdAt,value
2018-09-09T00:01:47.383Z,52.69
2018-09-09T00:04:16.628Z,53.06
2018-09-09T00:06:45.855Z,53.09
2018-09-09T00:09:19.346Z,52.85
2018-09-09T00:11:48.564Z,52.86
2018-09-09T00:14:18.055Z,53.10
2018-09-09T00:16:46.919Z,52.87
2018-09-09T00:19:16.088Z,52.05
2018-09-09T00:21:45.302Z,52.24
2018-09-09T00:24:14.787Z,52.93
2018-09-09T00:26:44.159Z,52.08
2018-09-09T00:29:13.501Z,52.17
2018-09-09T00:31:42.748Z,52.06
2018-09-09T00:34:11.986Z,52.67
2018-09-09T00:36:40.888Z,51.85
2018-09-09T00:39:10.240Z,52.27
2018-09-09T00:41:39.602Z,52.39
2018-09-09T00:44:08.780Z,51.72
2018-09-09T00:46:37.917Z,51.67
2018-09-09T00:49:12.584Z,51.87
2018-09-09T00:51:46.804Z,51.68
2018-09-09T00:54:15.992Z,51.78
2018-09-09T00:56:45.343Z,51.50
2018-09-09T00:59:14.704Z,52.22
2018-09-09T01:01:44.155Z,52.36
2018-09-09T01:04:13.446Z,51.38
2018-09-09T01:06:42.715Z,51.99
2018-09-09T01:09:12.430Z,52.82
2018-09-09T01:11:41.859Z,52.91
2018-09-09T01:14:11.116Z,52.80
2018-09-09T01:16:40.463Z,53.18
2018-09-09T01:19:09.649Z,52.84
2018-09-09T01:21:39.002Z,53.25
2018-09-09T01:24:08.211Z,52.63
2018-09-09T01:26:37.544Z,53.36
2018-09-09T01:29:06.940Z,53.40
2018-09-09T01:31:36.409Z,53.73
2018-09-09T01:34:05.611Z,53.67
2018-09-09T01:36:34.624Z,53.23
2018-09-09T01:39:04.635Z,53.92
2018-09-09T01:41:33.847Z,54.17
2018-09-09T01:44:03.154Z,53.66
2018-09-09T01:46:32.662Z,53.91
2018-09-09T01:49:01.689Z,53.91
2018-09-09T01:51:31.200Z,55.04
2018-09-09T01:54:00.197Z,55.13
2018-09-09T01:56:29.500Z,54.57
2018-09-09T01:58:58.748Z,54.81
2018-09-09T02:01:28.009Z,54.95
2018-09-09T02:03:56.999Z,55.70
2018-09-09T02:06:26.404Z,55.45
2018-09-09T02:08:55.562Z,54.84
2018-09-09T02:11:24.838Z,55.01
2018-09-09T02:13:54.342Z,55.62
2018-09-09T02:16:23.697Z,54.59
2018-09-09T02:18:52.655Z,54.67
2018-09-09T02:21:21.634Z,54.62
2018-09-09T02:23:51.043Z,54.95
2018-09-09T02:26:20.472Z,53.95
2018-09-09T02:28:49.889Z,54.74
2018-09-09T02:31:19.372Z,53.72
2018-09-09T02:33:48.827Z,53.65
2018-09-09T02:36:18.182Z,53.93
2018-09-09T02:38:47.391Z,53.57
2018-09-09T02:41:16.695Z,54.46
2018-09-09T02:43:45.941Z,54.25
2018-09-09T02:46:15.293Z,54.45
2018-09-09T02:48:44.403Z,54.15
2018-09-09T02:51:13.787Z,53.91
2018-09-09T02:53:43.159Z,52.98
2018-09-09T02:56:12.468Z,53.06
2018-09-09T02:58:41.975Z,53.65
2018-09-09T03:01:11.079Z,52.97
2018-09-09T03:03:40.152Z,52.61
2018-09-09T03:06:09.456Z,52.98
2018-09-09T03:08:38.803Z,53.16
2018-09-09T03:11:12.894Z,53.51
2018-09-09T03:13:42.907Z,52.64
2018-09-09T03:16:12.357Z,52.70
2018-09-09T03:18:42.335Z,53.19
2018-09-09T03:21:11.258Z,52.80
2018-09-09T03:23:40.648Z,52.95
2018-09-09T03:26:10.203Z,52.66
2018-09-09T03:28:39.426Z,53.24
2018-09-09T03:31:08.808Z,53.29
2018-09-09T03:33:38.150Z,52.63
2018-09-09T03:36:07.451Z,52.19
2018-09-09T03:38:36.705Z,52.22
2018-09-09T03:41:05.856Z,52.79
2018-09-09T03:43:35.092Z,53.02
2018-09-09T03:46:04.392Z,52.54
2018-09-09T03:48:33.843Z,53.29
2018-09-09T03:51:02.963Z,52.27
2018-09-09T03:53:31.979Z,52.36
2018-09-09T03:56:01.284Z,52.62
2018-09-09T03:58:30.341Z,52.17
2018-09-09T04:00:59.348Z,52.84
2018-09-09T04:03:28.727Z,52.97
2018-09-09T04:05:58.327Z,52.81
2018-09-09T04:08:27.837Z,51.91
2018-09-09T04:10:57.215Z,52.10
2018-09-09T04:13:26.411Z,52.54
2018-09-09T04:15:55.590Z,52.12
2018-09-09T04:18:24.859Z,51.28
2018-09-09T04:20:54.225Z,52.21
2018-09-09T04:23:23.532Z,51.92
2018-09-09T04:25:52.696Z,51.60
2018-09-09T04:28:22.067Z,51.94
2018-09-09T04:30:51.286Z,50.95
2018-09-09T04:33:20.670Z,51.38
2018-09-09T04:35:49.936Z,51.46
2018-09-09T04:38:19.140Z,51.52
2018-09-09T04:40:48.503Z,51.24
2018-09-09T04:43:17.963Z,51.48
2018-09-09T04:45:47.208Z,51.22
2018-09-09T04:48:16.231Z,51.38
2018-09-09T04:50:45.404Z,50.61
2018-09-09T04:53:14.687Z,50.77
2018-09-09T04:55:44.097Z,50.05
2018-09-09T04:58:13.386Z,50.04
2018-09-09T05:00:42.655Z,50.73
2018-09-09T05:03:11.908Z,50.87
2018-09-09T05:05:40.870Z,50.72
2018-09-09T05:08:10.085Z,50.77
2018-09-09T05:10:39.357Z,49.69
2018-09-09T05:13:08.460Z,50.57
2018-09-09T05:15:37.627Z,50.33
2018-09-09T05:18:06.798Z,49.16
2018-09-09T05:20:35.926Z,49.88
2018-09-09T05:23:05.216Z,50.08
2018-09-09T05:25:34.344Z,49.42
2018-09-09T05:28:03.654Z,49.82
2018-09-09T05:30:32.997Z,49.42
2018-09-09T05:33:01.955Z,49.57
2018-09-09T05:35:31.415Z,49.53
2018-09-09T05:38:00.426Z,48.88
2018-09-09T05:40:29.768Z,49.55
2018-09-09T05:42:59.040Z,49.79
2018-09-09T05:45:28.155Z,48.48
2018-09-09T05:47:57.533Z,48.27
2018-09-09T05:50:26.520Z,48.73
2018-09-09T05:52:55.541Z,48.55
2018-09-09T05:55:24.878Z,48.55
2018-09-09T05:57:54.294Z,48.68
2018-09-09T06:00:23.579Z,47.51
2018-09-09T06:02:52.917Z,48.59
2018-09-09T06:05:22.324Z,47.88
2018-09-09T06:07:51.214Z,47.20
2018-09-09T06:10:20.440Z,47.55
2018-09-09T06:12:49.748Z,47.92
2018-09-09T06:15:18.893Z,47.23
2018-09-09T06:17:48.164Z,46.53
2018-09-09T06:20:17.444Z,47.10
2018-09-09T06:22:46.646Z,46.97
2018-09-09T06:25:15.771Z,46.06
2018-09-09T06:27:44.936Z,46.67
2018-09-09T06:30:14.243Z,46.33
2018-09-09T06:32:43.585Z,46.30
2018-09-09T06:35:12.783Z,44.97
2018-09-09T06:37:42.108Z,44.67
2018-09-09T06:40:11.428Z,45.04
2018-09-09T06:42:40.394Z,45.18
2018-09-09T06:45:09.671Z,45.17
2018-09-09T06:47:39.020Z,44.73
2018-09-09T06:50:08.441Z,45.26
2018-09-09T06:52:37.683Z,45.91
2018-09-09T06:55:07.247Z,45.08
2018-09-09T06:57:36.521Z,45.34
2018-09-09T07:00:05.761Z,45.21
2018-09-09T07:02:35.120Z,44.86
2018-09-09T07:05:04.168Z,45.12
2018-09-09T07:07:33.390Z,44.49
2018-09-09T07:10:02.712Z,44.12
2018-09-09T07:12:31.920Z,44.57
2018-09-09T07:15:01.137Z,44.44
2018-09-09T07:17:30.302Z,44.40
2018-09-09T07:19:59.449Z,43.65
2018-09-09T07:22:28.693Z,43.67
2018-09-09T07:24:57.871Z,43.96
2018-09-09T07:27:27.088Z,44.07
2018-09-09T07:29:56.544Z,44.03
2018-09-09T07:32:25.784Z,44.67
2018-09-09T07:34:55.188Z,44.12
2018-09-09T07:37:24.406Z,43.68
2018-09-09T07:39:53.683Z,43.20
2018-09-09T07:42:23.044Z,43.19
2018-09-09T07:44:52.510Z,40.87
2018-09-09T07:47:21.477Z,41.35
2018-09-09T07:49:50.667Z,41.08
2018-09-09T07:52:19.942Z,38.55
2018-09-09T07:54:49.163Z,38.43
2018-09-09T07:57:18.526Z,36.94
2018-09-09T07:59:47.875Z,36.91
2018-09-09T08:02:17.222Z,35.47
2018-09-09T08:04:46.525Z,34.59
2018-09-09T08:07:16.026Z,33.93
2018-09-09T08:09:45.222Z,33.61
2018-09-09T08:12:14.725Z,32.27
2018-09-09T08:14:43.979Z,32.74
2018-09-09T08:17:13.267Z,32.70
2018-09-09T08:19:42.476Z,33.59
2018-09-09T08:22:11.500Z,33.14
2018-09-09T08:24:40.549Z,32.83
2018-09-09T08:27:09.854Z,33.45
2018-09-09T08:29:39.167Z,32.36
2018-09-09T08:32:08.439Z,31.12
2018-09-09T08:34:37.918Z,31.31
2018-09-09T08:37:07.204Z,30.42
2018-09-09T08:39:36.195Z,31.45
2018-09-09T08:42:05.114Z,31.64
2018-09-09T08:44:34.482Z,32.36
2018-09-09T08:47:03.836Z,32.67
2018-09-09T08:49:33.188Z,32.46
2018-09-09T08:52:02.618Z,33.24
2018-09-09T08:54:32.093Z,31.67
2018-09-09T08:57:01.470Z,31.06
2018-09-09T08:59:30.739Z,30.20
2018-09-09T09:01:59.943Z,31.66
2018-09-09T09:04:29.251Z,31.94
2018-09-09T09:06:58.464Z,31.70
2018-09-09T09:09:27.670Z,32.74
2018-09-09T09:11:57.031Z,31.84
2018-09-09T09:14:26.333Z,31.25
2018-09-09T09:16:55.291Z,30.68
2018-09-09T09:19:24.477Z,31.82
2018-09-09T09:21:53.679Z,31.50
2018-09-09T09:24:23.168Z,30.71
2018-09-09T09:26:52.516Z,30.29
2018-09-09T09:29:21.479Z,30.66
2018-09-09T09:31:50.526Z,29.73
2018-09-09T09:34:19.545Z,28.51
2018-09-09T09:36:48.765Z,27.08
2018-09-09T09:39:18.011Z,26.87
2018-09-09T09:41:47.283Z,27.68
2018-09-09T09:44:16.743Z,26.92
2018-09-09T09:46:46.113Z,25.21
2018-09-09T09:49:15.752Z,25.51
2018-09-09T09:51:45.044Z,23.98
2018-09-09T09:54:14.072Z,22.03
2018-09-09T09:56:43.129Z,22.81
2018-09-09T09:59:12.107Z,22.20
2018-09-09T10:01:41.317Z,22.19
2018-09-09T10:04:10.309Z,22.52
2018-09-09T10:06:39.500Z,21.51
2018-09-09T10:09:08.747Z,21.89
2018-09-09T10:11:37.967Z,20.86
2018-09-09T10:14:07.349Z,20.06
2018-09-09T10:16:36.606Z,18.53
2018-09-09T10:19:05.720Z,19.43
2018-09-09T10:21:34.534Z,18.35
2018-09-09T10:24:03.968Z,18.59
2018-09-09T10:26:33.361Z,18.27
2018-09-09T10:29:02.983Z,16.92
2018-09-09T10:31:32.503Z,14.96
2018-09-09T10:34:02.020Z,14.51
2018-09-09T10:36:31.209Z,13.29
2018-09-09T10:39:00.601Z,12.11
2018-09-09T10:41:29.728Z,12.94
2018-09-09T10:43:59.086Z,14.67
2018-09-09T10:46:28.010Z,16.01
2018-09-09T10:48:57.131Z,15.52
2018-09-09T10:51:26.263Z,14.22
2018-09-09T10:53:55.254Z,13.08
2018-09-09T10:56:24.619Z,13.58
2018-09-09T10:58:53.835Z,12.73
2018-09-09T11:01:22.947Z,11.76
2018-09-09T11:03:52.351Z,12.59
2018-09-09T11:06:21.650Z,13.02
2018-09-09T11:08:51.013Z,13.30
2018-09-09T11:11:20.232Z,13.08
2018-09-09T11:13:49.393Z,11.97
2018-09-09T11:16:18.738Z,11.10
2018-09-09T11:18:47.965Z,11.76
2018-09-09T11:21:17.460Z,12.67
2018-09-09T11:23:46.915Z,12.83
2018-09-09T11:26:16.219Z,14.43
2018-09-09T11:28:45.361Z,15.63
2018-09-09T11:31:14.830Z,14.96
2018-09-09T11:33:44.272Z,14.01
2018-09-09T11:36:14.685Z,13.42
2018-09-09T11:38:44.275Z,12.87
2018-09-09T11:41:13.548Z,13.20
2018-09-09T11:43:42.886Z,14.68
2018-09-09T11:46:12.079Z,16.49
2018-09-09T11:48:41.372Z,16.24
2018-09-09T11:51:10.613Z,15.08
2018-09-09T11:53:39.867Z,14.92
2018-09-09T11:56:09.091Z,15.01
2018-09-09T11:58:39.211Z,15.09
2018-09-09T12:01:08.184Z,16.48
2018-09-09T12:03:37.485Z,17.77
2018-09-09T12:06:06.823Z,17.65
2018-09-09T12:08:36.179Z,16.33
2018-09-09T12:11:05.404Z,16.25
2018-09-09T12:13:34.616Z,16.30
2018-09-09T12:16:03.888Z,17.03
2018-09-09T12:18:33.340Z,16.75
2018-09-09T12:21:02.603Z,15.45
2018-09-09T12:23:31.933Z,14.58
2018-09-09T12:26:01.129Z,14.57
2018-09-09T12:28:30.231Z,13.20
2018-09-09T12:30:59.237Z,13.40
2018-09-09T12:33:28.516Z,14.73
2018-09-09T12:35:57.819Z,14.45
2018-09-09T12:38:27.058Z,14.23
2018-09-09T12:40:56.412Z,15.60
2018-09-09T12:43:30.927Z,15.58
2018-09-09T12:46:04.954Z,15.67
2018-09-09T12:48:39.230Z,16.84
2018-09-09T12:51:09.526Z,17.35
2018-09-09T12:53:38.783Z,17.35
2018-09-09T12:56:08.123Z,17.28
2018-09-09T12:58:37.276Z,18.24
2018-09-09T13:01:06.984Z,18.41
2018-09-09T13:03:36.128Z,18.51
2018-09-09T13:06:05.590Z,18.85
2018-09-09T13:08:34.692Z,17.90
2018-09-09T13:11:03.957Z,17.89
2018-09-09T13:13:32.935Z,16.12
2018-09-09T13:16:02.134Z,15.47
2018-09-09T13:18:31.508Z,14.96
2018-09-09T13:21:00.436Z,14.61
2018-09-09T13:23:29.679Z,14.70
2018-09-09T13:25:58.902Z,14.78
2018-09-09T13:28:28.076Z,14.90
2018-09-09T13:30:57.388Z,15.46
2018-09-09T13:33:26.835Z,16.79
2018-09-09T13:35:56.396Z,19.50
2018-09-09T13:38:25.740Z,20.16
2018-09-09T13:40:54.611Z,20.24
2018-09-09T13:43:24.034Z,20.79
2018-09-09T13:45:53.160Z,20.92
2018-09-09T13:48:22.435Z,21.16
2018-09-09T13:50:51.628Z,22.23
2018-09-09T13:53:20.887Z,21.75
2018-09-09T13:55:49.991Z,22.33
2018-09-09T13:58:19.538Z,22.37
2018-09-09T14:00:48.872Z,23.52
2018-09-09T14:03:18.437Z,24.62
2018-09-09T14:05:47.763Z,25.17
2018-09-09T14:08:17.072Z,25.58
2018-09-09T14:10:46.259Z,24.51
2018-09-09T14:13:15.167Z,25.15
2018-09-09T14:15:44.572Z,25.30
2018-09-09T14:18:13.764Z,26.00
2018-09-09T14:20:42.767Z,25.71
2018-09-09T14:23:11.863Z,25.98
2018-09-09T14:25:41.194Z,26.71
2018-09-09T14:28:10.497Z,27.18
2018-09-09T14:30:39.776Z,26.41
2018-09-09T14:33:09.110Z,27.60
2018-09-09T14:35:38.656Z,27.91
2018-09-09T14:38:07.699Z,28.03
2018-09-09T14:40:37.149Z,28.31
2018-09-09T14:43:06.456Z,28.79
2018-09-09T14:45:35.857Z,28.86
2018-09-09T14:48:05.122Z,28.41
2018-09-09T14:50:34.490Z,29.46
2018-09-09T14:53:03.862Z,29.07
2018-09-09T14:55:33.115Z,29.70
2018-09-09T14:58:02.440Z,29.68
2018-09-09T15:00:31.792Z,29.87
2018-09-09T15:03:01.160Z,30.28
2018-09-09T15:05:30.454Z,30.53
2018-09-09T15:07:59.812Z,31.26
2018-09-09T15:10:29.087Z,30.73
2018-09-09T15:12:57.991Z,31.17
2018-09-09T15:15:27.231Z,31.20
2018-09-09T15:17:56.575Z,32.28
2018-09-09T15:20:25.689Z,32.03
2018-09-09T15:22:54.884Z,32.88
2018-09-09T15:25:24.497Z,32.51
2018-09-09T15:27:53.896Z,32.48
2018-09-09T15:30:23.086Z,32.20
2018-09-09T15:32:52.334Z,32.27
2018-09-09T15:35:21.727Z,32.71
2018-09-09T15:37:50.814Z,33.23
2018-09-09T15:40:19.881Z,33.08
2018-09-09T15:42:48.855Z,32.58
2018-09-09T15:45:18.230Z,33.09
2018-09-09T15:47:47.212Z,33.22
2018-09-09T15:50:16.592Z,32.95
2018-09-09T15:52:45.818Z,33.39
2018-09-09T15:55:15.087Z,33.93
2018-09-09T15:57:44.292Z,34.22
2018-09-09T16:00:13.836Z,34.44
2018-09-09T16:02:42.838Z,34.55
2018-09-09T16:05:12.282Z,35.11
2018-09-09T16:07:41.720Z,35.65
2018-09-09T16:10:11.075Z,36.19
2018-09-09T16:12:40.045Z,36.47
2018-09-09T16:15:09.207Z,35.96
2018-09-09T16:17:38.528Z,37.16
2018-09-09T16:20:08.361Z,36.23
2018-09-09T16:22:37.743Z,37.50
2018-09-09T16:25:07.091Z,37.65
2018-09-09T16:27:36.389Z,38.04
2018-09-09T16:30:06.421Z,38.75
2018-09-09T16:32:35.852Z,38.10
2018-09-09T16:35:05.076Z,38.63
2018-09-09T16:37:34.258Z,38.67
2018-09-09T16:40:03.452Z,38.90
2018-09-09T16:42:33.091Z,38.77
2018-09-09T16:45:02.702Z,39.36
2018-09-09T16:47:33.083Z,39.24
2018-09-09T16:50:02.431Z,39.55
2018-09-09T16:52:31.519Z,39.75
2018-09-09T16:55:00.920Z,39.65
2018-09-09T16:57:30.136Z,39.41
2018-09-09T16:59:59.389Z,39.99
2018-09-09T17:02:28.564Z,39.62
2018-09-09T17:04:57.927Z,39.93
2018-09-09T17:07:27.117Z,40.03
2018-09-09T17:09:56.563Z,39.26
2018-09-09T17:12:25.460Z,40.17
2018-09-09T17:14:54.738Z,39.68
2018-09-09T17:17:24.164Z,39.66
2018-09-09T17:19:53.103Z,40.34
2018-09-09T17:22:22.492Z,41.33
2018-09-09T17:24:51.566Z,40.13
2018-09-09T17:27:20.796Z,40.42
2018-09-09T17:29:49.780Z,40.85
2018-09-09T17:32:19.213Z,41.37
2018-09-09T17:34:48.592Z,41.17
2018-09-09T17:37:17.660Z,40.91
2018-09-09T17:39:47.571Z,41.04
2018-09-09T17:42:16.664Z,40.99
2018-09-09T17:44:46.135Z,40.95
2018-09-09T17:47:15.604Z,41.71
2018-09-09T17:49:44.985Z,41.76
2018-09-09T17:52:14.330Z,41.48
2018-09-09T17:54:43.357Z,41.87
2018-09-09T17:57:12.687Z,42.03
2018-09-09T17:59:42.063Z,40.99
2018-09-09T18:02:11.440Z,41.54
2018-09-09T18:04:40.852Z,42.33
2018-09-09T18:07:10.036Z,41.35
2018-09-09T18:09:39.377Z,41.36
2018-09-09T18:12:08.666Z,41.67
2018-09-09T18:14:37.739Z,42.01
2018-09-09T18:17:07.108Z,40.97
2018-09-09T18:19:36.273Z,41.02
2018-09-09T18:22:05.525Z,41.79
2018-09-09T18:24:35.367Z,41.15
2018-09-09T18:27:04.384Z,41.41
2018-09-09T18:29:33.927Z,42.02
2018-09-09T18:32:02.891Z,41.08
2018-09-09T18:34:32.019Z,41.83
2018-09-09T18:37:01.368Z,41.18
2018-09-09T18:39:30.671Z,41.66
2018-09-09T18:42:00.060Z,42.16
2018-09-09T18:44:29.555Z,42.26
2018-09-09T18:46:58.473Z,42.21
2018-09-09T18:49:27.915Z,42.44
2018-09-09T18:51:57.208Z,42.87
2018-09-09T18:54:26.560Z,43.50
2018-09-09T18:56:55.624Z,43.10
2018-09-09T18:59:24.932Z,42.35
2018-09-09T19:01:53.950Z,42.68
2018-09-09T19:04:22.905Z,43.52
2018-09-09T19:06:52.332Z,43.34
2018-09-09T19:09:21.588Z,43.93
2018-09-09T19:11:50.738Z,42.30
2018-09-09T19:14:20.542Z,42.33
2018-09-09T19:16:50.068Z,42.49
2018-09-09T19:19:19.352Z,41.92
2018-09-09T19:21:48.765Z,41.22
2018-09-09T19:24:18.146Z,42.44
2018-09-09T19:26:47.443Z,42.78
2018-09-09T19:29:16.648Z,43.41
2018-09-09T19:31:45.942Z,44.03
2018-09-09T19:34:15.309Z,42.61
2018-09-09T19:36:44.777Z,42.95
2018-09-09T19:39:14.132Z,42.82
2018-09-09T19:41:43.452Z,43.50
2018-09-09T19:44:12.589Z,42.91
2018-09-09T19:46:41.841Z,42.45
2018-09-09T19:49:11.253Z,42.49
2018-09-09T19:51:40.624Z,42.53
2018-09-09T19:54:10.138Z,41.63
2018-09-09T19:56:39.465Z,41.67
2018-09-09T19:59:08.566Z,42.06
2018-09-09T20:01:37.428Z,41.43
2018-09-09T20:04:06.528Z,41.38
2018-09-09T20:06:35.831Z,41.37
2018-09-09T20:09:06.104Z,41.98
2018-09-09T20:11:35.388Z,41.12
2018-09-09T20:14:04.966Z,41.70
2018-09-09T20:16:34.003Z,40.96
2018-09-09T20:19:03.050Z,41.11
2018-09-09T20:21:32.147Z,41.63
2018-09-09T20:24:01.479Z,40.86
2018-09-09T20:26:30.691Z,41.19
2018-09-09T20:28:59.716Z,40.87
2018-09-09T20:31:29.072Z,40.96
2018-09-09T20:33:58.024Z,40.86
2018-09-09T20:36:27.354Z,40.88
2018-09-09T20:38:56.321Z,40.86
2018-09-09T20:41:25.651Z,41.69
2018-09-09T20:43:55.026Z,41.58
2018-09-09T20:46:24.500Z,40.71
2018-09-09T20:48:54.003Z,41.01
2018-09-09T20:51:22.955Z,41.20
2018-09-09T20:53:52.235Z,40.62
2018-09-09T20:56:21.456Z,40.63
2018-09-09T20:58:50.986Z,41.18
2018-09-09T21:01:20.100Z,41.35
2018-09-09T21:03:49.388Z,41.53
2018-09-09T21:06:18.836Z,41.03
2018-09-09T21:08:48.035Z,41.24
2018-09-09T21:11:17.227Z,41.31
2018-09-09T21:13:46.476Z,40.75
2018-09-09T21:16:15.774Z,41.35
2018-09-09T21:18:45.048Z,41.58
2018-09-09T21:21:14.392Z,40.72
2018-09-09T21:23:43.830Z,41.52
2018-09-09T21:26:13.063Z,40.83
2018-09-09T21:28:42.457Z,40.90
2018-09-09T21:31:11.826Z,41.64
2018-09-09T21:33:41.136Z,41.68
2018-09-09T21:36:10.078Z,41.65
2018-09-09T21:38:39.407Z,41.24
2018-09-09T21:41:08.592Z,40.76
2018-09-09T21:43:38.024Z,40.88
2018-09-09T21:46:07.273Z,41.61
2018-09-09T21:48:36.515Z,41.25
2018-09-09T21:51:05.824Z,41.84
2018-09-09T21:53:35.030Z,41.78
2018-09-09T21:56:04.087Z,41.77
2018-09-09T21:58:33.324Z,40.83
2018-09-09T22:01:07.469Z,40.91
2018-09-09T22:03:36.850Z,41.56
2018-09-09T22:06:06.092Z,40.96
2018-09-09T22:08:35.373Z,41.32
2018-09-09T22:11:04.751Z,41.29
2018-09-09T22:13:34.070Z,40.42
2018-09-09T22:16:03.407Z,40.36
2018-09-09T22:18:32.939Z,41.40
2018-09-09T22:21:02.168Z,41.28
2018-09-09T22:23:31.405Z,40.98
2018-09-09T22:26:00.748Z,40.73
2018-09-09T22:28:29.863Z,41.33
2018-09-09T22:30:59.311Z,41.14
2018-09-09T22:33:28.707Z,41.30
2018-09-09T22:35:57.865Z,41.28
2018-09-09T22:38:27.184Z,41.21
2018-09-09T22:40:56.131Z,40.43
2018-09-09T22:43:25.348Z,41.30
2018-09-09T22:46:00.773Z,40.56
2018-09-09T22:48:30.074Z,41.33
2018-09-09T22:50:59.296Z,41.45
2018-09-09T22:53:28.556Z,41.41
2018-09-09T22:55:57.919Z,41.03
2018-09-09T22:58:27.390Z,40.63
2018-09-09T23:00:56.415Z,40.80
2018-09-09T23:03:25.797Z,40.80
2018-09-09T23:05:54.776Z,40.91
2018-09-09T23:08:23.948Z,40.97
2018-09-09T23:10:53.211Z,40.99
2018-09-09T23:13:22.519Z,41.86
2018-09-09T23:15:51.716Z,41.93
2018-09-09T23:18:20.930Z,42.17
2018-09-09T23:20:50.103Z,41.67
2018-09-09T23:23:19.113Z,41.64
2018-09-09T23:25:48.530Z,42.27
2018-09-09T23:28:17.716Z,42.27
2018-09-09T23:30:46.964Z,42.35
2018-09-09T23:33:16.417Z,42.25
2018-09-09T23:35:45.693Z,42.43
2018-09-09T23:38:14.707Z,42.31
2018-09-09T23:40:43.827Z,42.76
2018-09-09T23:43:13.174Z,42.43
2018-09-09T23:45:42.504Z,42.68
2018-09-09T23:48:11.921Z,42.96
2018-09-09T23:50:40.748Z,42.63
2018-09-09T23:53:09.840Z,42.90
2018-09-09T23:55:39.111Z,42.37
2018-09-09T23:58:08.323Z,43.47
